• Join FlightAware (Why Join?)
  • Login
  • US Flag 
Rudolph Flight #1: Arrived! 
06:42AM EST


 

Airport Tracker/Info


-or-


 

Live Flight TrackerFlight Track Log ✈ ASQ4209 ✈ 12-Jul-2013 ✈ KEWR - KTVC

Flight Track Log - Related Links

Times and Time Zones

All times are in EDT time to prevent confusion due to time zone crossing. See the ASQ4209 flight status page for this flight to view local times or setup timezone preferences in your user account.

Time Position Orientation Groundspeed Altitude Reporting Facility
EDT Latitude Longitude Course Direction KTS MPH feet Rate Location/Type
09:10PM 40.7333 -74.1167 351° North 190 219 3,300  Level New York TRACON
09:11PM 40.7667 -74.2000 298° West 291 335 5,800 2,640 Climbing New York TRACON
09:12PM 40.9931 -74.2429 350° North  Level FlightAware Approximate
09:13PM 41.0979 -74.2662 350° North  Level FlightAware Approximate
09:13PM 40.8325 -74.3475 301° West 287 330 10,500  Level New York Center
09:14PM 41.2011 -74.3003 346° North  Level FlightAware Approximate
09:14PM 40.9147 -74.3819 342° North 295 339 12,200  Level New York Center
09:15PM 41.3056 -74.3211 351° North  Level FlightAware Approximate
09:15PM 41.0150 -74.3736 North 331 381 13,900  Level New York Center
09:16PM 41.1214 -74.3708 North 359 413 15,400 1,380 Climbing New York Center
09:17PM 41.2181 -74.4064 345° North 396 456 16,800 1,560 Climbing New York Center
09:18PM 41.2936 -74.5264 310° West 382 440 18,600 1,740 Climbing New York Center
09:19PM 41.3586 -74.6406 307° West 382 440 20,300 1,920 Climbing New York Center
09:20PM 41.4211 -74.7606 305° West 388 447 22,400 1,740 Climbing New York Center
09:21PM 41.4839 -74.8750 306° West 393 452 23,900 1,620 Climbing New York Center
09:22PM 41.5467 -74.9869 307° West 388 447 25,700 1,920 Climbing New York Center
09:23PM 41.6069 -75.1017 305° West 388 447 27,800 1,920 Climbing New York Center
09:24PM 41.6656 -75.2053 307° West 375 432 29,600 1,800 Climbing New York Center
09:25PM 41.7219 -75.3119 305° West 370 426 31,400 1,620 Climbing New York Center
09:26PM 41.7822 -75.4217 306° West 365 420 32,900 1,440 Climbing New York Center
09:27PM 41.8364 -75.5286 304° West 360 414 34,300 1,260 Climbing New York Center
09:28PM 41.8925 -75.6300 307° West 354 407 35,500 840 Climbing New York Center
09:29PM 41.9483 -75.7400 304° West 354 407 36,000 240 Climbing New York Center
09:30PM 42.0122 -75.8594 306° West 365 420 36,000  Level New York Center
09:32PM 42.1375 -76.1022 305° West 408 470 36,000  Level Cleveland Center
09:33PM 42.1911 -76.2500 296° West 424 488 36,000  Level Cleveland Center
09:34PM 42.2533 -76.4114 298° West 441 507 36,000  Level Cleveland Center
09:35PM 42.2897 -76.5522 289° West 441 507 36,000  Level Cleveland Center
09:36PM 42.3364 -76.7008 293° West 441 507 36,000  Level Cleveland Center
09:37PM 42.3831 -76.8469 293° West 431 496 36,000  Level Cleveland Center
09:38PM 42.4272 -76.9936 292° West 425 489 36,000  Level Cleveland Center
09:39PM 42.4756 -77.1428 294° West 425 489 36,000  Level Cleveland Center
09:40PM 42.5217 -77.2953 292° West 430 495 36,000  Level Cleveland Center
09:41PM 42.5675 -77.4453 293° West 430 495 36,000  Level Cleveland Center
09:42PM 42.6222 -77.6175 293° West 435 501 36,000  Level Cleveland Center
09:43PM 42.6678 -77.7736 292° West 440 506 36,000  Level Cleveland Center
09:44PM 42.7175 -77.9325 293° West 448 516 36,000  Level Cleveland Center
09:45PM 42.7647 -78.0858 293° West 448 516 36,000  Level Cleveland Center
09:46PM 42.8117 -78.2425 292° West 448 516 36,000  Level Cleveland Center
09:47PM 42.8586 -78.3994 292° West 448 516 36,000  Level Cleveland Center
09:48PM 42.9031 -78.5567 291° West 448 516 36,000  Level Cleveland Center
09:49PM 42.9517 -78.7167 293° West 453 521 36,000  Level Cleveland Center
09:50PM 43.0019 -78.8772 293° West 453 521 36,000  Level Cleveland Center
09:51PM 43.0522 -79.0378 293° West 453 521 36,000  Level Cleveland Center
09:52PM 43.1000 -79.2000 292° West 460 529 36,000  Level Toronto Center
09:53PM 43.1500 -79.3667 292° West 460 529 36,000  Level Toronto Center
09:54PM 43.2000 -79.5167 295° West 470 541 36,000  Level Toronto Center
09:55PM 43.2500 -79.7000 291° West 470 541 36,000  Level Toronto Center
09:56PM 43.3000 -79.8667 292° West 470 541 36,000  Level Toronto Center
09:57PM 43.3500 -80.0167 295° West 470 541 36,000  Level Toronto Center
09:58PM 43.4000 -80.1833 292° West 460 529 36,000  Level Toronto Center
09:59PM 43.4500 -80.3500 293° West 460 529 36,000  Level Toronto Center
10:00PM 43.5000 -80.5000 295° West 460 529 36,000  Level Toronto Center
10:01PM 43.5667 -80.6667 299° West 460 529 36,000  Level Toronto Center
10:02PM 43.6000 -80.8333 285° West 460 529 36,000  Level Toronto Center
10:03PM 43.6500 -81.0000 293° West 470 541 36,000  Level Toronto Center
10:04PM 43.7167 -81.1500 302° West 460 529 36,000  Level Toronto Center
10:05PM 43.7667 -81.3167 293° West 460 529 36,000  Level Toronto Center
10:06PM 43.8167 -81.4833 293° West 460 529 36,000  Level Toronto Center
10:07PM 43.8833 -81.6167 305° West 450 518 36,000  Level Toronto Center
10:08PM 43.9333 -81.7833 293° West 450 518 36,000  Level Toronto Center
10:09PM 43.9667 -81.9500 286° West 450 518 36,000  Level Toronto Center
10:10PM 44.0333 -82.1167 299° West 460 529 36,000  Level Toronto Center
10:11PM 44.0833 -82.2833 293° West 460 529 36,000  Level Toronto Center
10:12PM 44.1167 -82.4667 284° West 470 541 36,000  Level Toronto Center
10:13PM 44.1667 -82.6333 293° West 460 529 36,000  Level Toronto Center
10:14PM 44.1833 -82.8000 278° West 460 529 36,000  Level Toronto Center
10:15PM 44.2333 -82.9667 293° West 450 518 36,000  Level Toronto Center
10:16PM 44.2667 -83.1333 286° West 450 518 36,000  Level Toronto Center
10:16PM 44.2906 -83.2150 292° West 445 512 36,000  Level Minneapolis Center
10:17PM 44.3242 -83.3797 286° West 444 511 36,000 -360 Level Minneapolis Center
10:18PM 44.3586 -83.5442 286° West 442 509 35,300 -1,980 Descending Minneapolis Center
10:19PM 44.3922 -83.7081 286° West 440 506 32,000 -3,300 Descending Minneapolis Center
10:20PM 44.4269 -83.8722 287° West 441 507 28,600 -3,420 Descending Minneapolis Center
10:22PM 44.4603 -84.0394 286° West 445 512 25,100 -3,720 Descending Minneapolis Center
10:23PM 44.4994 -84.2344 286° West 439 505 21,100 -3,600 Descending Minneapolis Center
10:24PM 44.5317 -84.3922 286° West 425 489 17,800 -3,240 Descending Minneapolis Center
10:25PM 44.5617 -84.5408 286° West 401 461 14,500 -2,940 Descending Minneapolis Center
10:26PM 44.5903 -84.6833 286° West 384 442 11,900 -1,860 Descending Minneapolis Center
10:27PM 44.6144 -84.8083 285° West 348 400 10,700 -1,380 Descending Minneapolis Center
10:28PM 44.6358 -84.9172 285° West 306 352 9,100 -1,680 Descending Minneapolis Center
10:29PM 44.6561 -85.0208 285° West 284 327 7,400 -1,440 Descending Minneapolis Center
10:30PM 44.6769 -85.1108 288° West 255 293 6,200 -720 Descending Minneapolis Center
10:31PM 44.6919 -85.1919 285° West 223 257 6,000 -120 Descending Minneapolis Center
10:32PM 44.6958 -85.2897 273° West 212 244 6,000 -420 Level Minneapolis Center
10:33PM 44.6936 -85.3708 268° West 209 241 5,200 -780 Descending Minneapolis Center
10:34PM 44.6919 -85.4475 268° West 199 229 4,500 -420 Descending Minneapolis Center
10:35PM 44.6922 -85.5294 270° West 207 238 4,400 -300 Descending Minneapolis Center
10:36PM 44.6906 -85.6147 268° West 217 250 3,900 -540 Descending Minneapolis Center
10:37PM 44.6814 -85.6906 260° West 204 235 3,400 -660 Descending Minneapolis Center
10:38PM 44.6733 -85.7650 261° West 196 226 2,600 -420 Descending Minneapolis Center
10:39PM 44.7083 -85.7897 333° Northwest 191 220 2,600  Level Minneapolis Center